createdAt,value
2022-08-24T00:00:34.276Z,70.00
2022-08-24T00:03:01.760Z,70.10
2022-08-24T00:05:28.730Z,70.00
2022-08-24T00:07:55.584Z,70.30
2022-08-24T00:10:22.770Z,70.60
2022-08-24T00:12:51.130Z,71.00
2022-08-24T00:15:18.691Z,71.30
2022-08-24T00:17:45.853Z,71.30
2022-08-24T00:20:13.502Z,71.30
2022-08-24T00:22:41.187Z,71.20
2022-08-24T00:25:11.094Z,71.30
2022-08-24T00:27:39.108Z,71.50
2022-08-24T00:30:09.967Z,71.30
2022-08-24T00:32:38.037Z,71.90
2022-08-24T00:35:06.855Z,71.90
2022-08-24T00:37:34.566Z,72.00
2022-08-24T00:40:01.625Z,72.20
2022-08-24T00:42:28.616Z,72.40
2022-08-24T00:44:55.637Z,72.50
2022-08-24T00:47:32.662Z,72.70
2022-08-24T00:50:04.520Z,72.60
2022-08-24T00:52:40.310Z,72.60
2022-08-24T00:55:18.633Z,72.50
2022-08-24T00:57:49.479Z,72.60
2022-08-24T01:00:26.568Z,72.80
2022-08-24T01:02:58.689Z,72.90
2022-08-24T01:05:26.027Z,73.00
2022-08-24T01:07:53.654Z,73.10
2022-08-24T01:10:25.829Z,73.20
2022-08-24T01:13:05.885Z,73.20
2022-08-24T01:15:39.180Z,73.30
2022-08-24T01:18:27.387Z,73.40
2022-08-24T01:21:03.242Z,73.70
2022-08-24T01:23:49.193Z,73.60
2022-08-24T01:26:19.748Z,73.90
2022-08-24T01:28:50.497Z,73.70
2022-08-24T01:31:22.679Z,73.80
2022-08-24T01:33:51.938Z,74.20
2022-08-24T01:36:46.740Z,74.20
2022-08-24T01:39:23.469Z,74.00
2022-08-24T01:41:51.579Z,74.00
2022-08-24T01:44:20.653Z,75.10
2022-08-24T01:46:53.846Z,74.30
2022-08-24T01:49:23.524Z,74.50
2022-08-24T01:51:50.429Z,74.60
2022-08-24T01:54:17.319Z,74.90
2022-08-24T01:56:44.246Z,74.80
2022-08-24T01:59:12.847Z,75.00
2022-08-24T02:01:46.671Z,75.30
2022-08-24T02:04:16.529Z,75.50
2022-08-24T02:06:45.059Z,75.70
2022-08-24T02:09:12.447Z,75.90
2022-08-24T02:11:40.555Z,76.10
2022-08-24T02:14:07.865Z,76.10
2022-08-24T02:16:35.014Z,76.20
2022-08-24T02:19:01.859Z,76.30
2022-08-24T02:21:29.275Z,76.60
2022-08-24T02:23:56.283Z,76.80
2022-08-24T02:26:23.208Z,76.80
2022-08-24T02:28:54.500Z,77.00
2022-08-24T02:31:22.013Z,77.00
2022-08-24T02:33:48.810Z,77.30
2022-08-24T02:36:25.661Z,77.50
2022-08-24T02:38:56.933Z,77.70
2022-08-24T02:41:27.090Z,77.70
2022-08-24T02:43:55.968Z,77.70
2022-08-24T02:46:27.159Z,77.70
2022-08-24T02:48:57.590Z,77.60
2022-08-24T02:51:44.013Z,77.70
2022-08-24T02:54:14.127Z,77.60
2022-08-24T02:56:41.080Z,77.70
2022-08-24T02:59:07.905Z,78.30
2022-08-24T03:01:34.959Z,78.30
2022-08-24T03:04:02.305Z,78.30
2022-08-24T03:06:29.194Z,78.70
2022-08-24T03:08:57.066Z,78.80
2022-08-24T03:11:27.940Z,78.80
2022-08-24T03:13:56.250Z,78.90
2022-08-24T03:16:23.215Z,79.00
2022-08-24T03:18:50.343Z,79.30
2022-08-24T03:21:17.579Z,79.40
2022-08-24T03:23:44.583Z,79.90
2022-08-24T03:26:12.259Z,80.00
2022-08-24T03:28:39.299Z,80.40
2022-08-24T03:31:06.458Z,80.60
2022-08-24T03:33:33.466Z,80.90
2022-08-24T03:36:00.749Z,80.90
2022-08-24T03:38:28.359Z,80.80
2022-08-24T03:40:56.191Z,80.80
2022-08-24T03:43:41.956Z,80.80
2022-08-24T03:46:09.341Z,81.10
2022-08-24T03:48:36.290Z,81.40
2022-08-24T03:51:03.777Z,81.20
2022-08-24T03:53:30.689Z,81.40
2022-08-24T03:55:57.643Z,81.50
2022-08-24T03:58:24.588Z,81.90
2022-08-24T04:00:51.548Z,82.00
2022-08-24T04:03:18.708Z,82.10
2022-08-24T04:05:45.691Z,82.30
2022-08-24T04:08:15.023Z,82.30
2022-08-24T04:10:45.199Z,82.50
2022-08-24T04:13:11.949Z,82.70
2022-08-24T04:15:42.449Z,82.60
2022-08-24T04:18:09.753Z,82.80
2022-08-24T04:20:43.443Z,83.10
2022-08-24T04:23:13.138Z,83.20
2022-08-24T04:25:47.979Z,83.20
2022-08-24T04:28:20.407Z,83.30
2022-08-24T04:30:51.570Z,83.30
2022-08-24T04:33:19.541Z,83.40
2022-08-24T04:35:48.301Z,83.70
2022-08-24T04:38:17.260Z,84.50
2022-08-24T04:40:46.866Z,83.70
2022-08-24T04:43:19.901Z,83.70
2022-08-24T04:45:48.425Z,83.60
2022-08-24T04:48:16.075Z,83.40
2022-08-24T04:50:44.609Z,83.40
2022-08-24T04:53:13.551Z,83.40
2022-08-24T04:55:49.597Z,83.30
2022-08-24T04:58:17.978Z,83.50
2022-08-24T05:00:45.726Z,83.60
2022-08-24T05:03:12.778Z,83.60
2022-08-24T05:05:45.691Z,83.60
2022-08-24T05:08:13.761Z,83.50
2022-08-24T05:10:46.307Z,83.50
2022-08-24T05:13:14.091Z,83.60
2022-08-24T05:15:43.499Z,83.30
2022-08-24T05:18:10.425Z,83.40
2022-08-24T05:20:40.969Z,83.50
2022-08-24T05:23:08.158Z,83.40
2022-08-24T05:25:35.255Z,83.50
2022-08-24T05:28:01.990Z,83.50
2022-08-24T05:30:28.733Z,83.80
2022-08-24T05:32:55.464Z,83.90
2022-08-24T05:35:22.354Z,83.70
2022-08-24T05:37:49.159Z,83.50
2022-08-24T05:40:18.832Z,83.40
2022-08-24T05:42:46.090Z,83.30
2022-08-24T05:45:13.104Z,83.50
2022-08-24T05:47:40.087Z,83.40
2022-08-24T05:50:07.714Z,83.30
2022-08-24T05:52:35.536Z,83.40
2022-08-24T05:55:02.537Z,83.40
2022-08-24T05:57:34.719Z,83.30
2022-08-24T06:00:02.149Z,83.70
2022-08-24T06:02:29.189Z,83.40
2022-08-24T06:04:55.957Z,83.50
2022-08-24T06:07:22.714Z,83.20
2022-08-24T06:09:49.500Z,83.10
2022-08-24T06:12:16.197Z,83.00
2022-08-24T06:14:47.467Z,82.90
2022-08-24T06:17:14.405Z,82.70
2022-08-24T06:19:42.296Z,82.80
2022-08-24T06:22:09.606Z,82.70
2022-08-24T06:24:58.502Z,82.60
2022-08-24T06:27:26.186Z,82.50
2022-08-24T06:29:58.965Z,82.40
2022-08-24T06:32:25.888Z,82.40
2022-08-24T06:34:57.405Z,82.30
2022-08-24T06:37:26.696Z,82.10
2022-08-24T06:39:57.820Z,81.90
2022-08-24T06:42:24.948Z,81.80
2022-08-24T06:44:52.602Z,81.60
2022-08-24T06:47:19.533Z,80.90
2022-08-24T06:49:46.284Z,80.60
2022-08-24T06:52:13.298Z,81.00
2022-08-24T06:54:40.539Z,81.00
2022-08-24T06:57:07.461Z,80.30
2022-08-24T06:59:34.280Z,80.00
2022-08-24T07:02:01.572Z,80.00
2022-08-24T07:04:28.777Z,79.50
2022-08-24T07:06:55.979Z,79.60
2022-08-24T07:09:25.011Z,79.90
2022-08-24T07:11:52.203Z,79.70
2022-08-24T07:14:19.571Z,79.70
2022-08-24T07:16:47.048Z,79.70
2022-08-24T07:19:13.924Z,79.60
2022-08-24T07:21:40.833Z,79.40
2022-08-24T07:24:07.647Z,79.10
2022-08-24T07:26:35.024Z,78.90
2022-08-24T07:29:05.554Z,78.90
2022-08-24T07:31:35.548Z,78.30
2022-08-24T07:34:04.158Z,78.00
2022-08-24T07:36:31.161Z,77.70
2022-08-24T07:38:58.716Z,77.50
2022-08-24T07:42:11.036Z,77.20
2022-08-24T07:44:15.686Z,77.20
2022-08-24T07:46:43.494Z,77.30
2022-08-24T07:49:31.562Z,76.60
2022-08-24T07:51:58.972Z,75.80
2022-08-24T07:54:26.071Z,75.00
2022-08-24T07:56:52.993Z,74.70
2022-08-24T07:59:19.748Z,74.00
2022-08-24T08:01:46.573Z,73.70
2022-08-24T08:04:14.245Z,73.30
2022-08-24T08:06:44.058Z,73.50
2022-08-24T08:09:10.892Z,73.30
2022-08-24T08:11:37.701Z,72.40
2022-08-24T08:14:04.456Z,72.00
2022-08-24T08:16:31.489Z,72.20
2022-08-24T08:19:09.877Z,71.20
2022-08-24T08:22:08.783Z,70.50
2022-08-24T08:24:38.354Z,68.90
2022-08-24T08:27:05.854Z,68.30
2022-08-24T08:29:34.077Z,68.30
2022-08-24T08:32:01.143Z,66.70
2022-08-24T08:34:28.965Z,65.60
2022-08-24T08:36:55.789Z,65.10
2022-08-24T08:39:25.800Z,64.60
2022-08-24T08:42:22.858Z,64.50
2022-08-24T08:44:58.625Z,63.70
2022-08-24T08:47:50.196Z,64.30
2022-08-24T08:50:21.895Z,64.10
2022-08-24T08:53:09.833Z,63.20
2022-08-24T08:55:58.424Z,63.70
2022-08-24T08:58:53.784Z,62.30
2022-08-24T09:01:47.132Z,62.40
2022-08-24T09:04:41.959Z,62.50
2022-08-24T09:07:20.540Z,62.30
2022-08-24T09:10:18.345Z,61.90
2022-08-24T09:13:03.943Z,61.80
2022-08-24T09:15:46.706Z,62.20
2022-08-24T09:18:22.996Z,61.40
2022-08-24T09:21:40.577Z,61.30
2022-08-24T09:24:37.330Z,61.30
2022-08-24T09:27:22.189Z,61.10
2022-08-24T09:30:18.386Z,61.10
2022-08-24T09:32:57.117Z,60.80
2022-08-24T09:35:52.599Z,61.00
2022-08-24T09:38:50.837Z,60.40
2022-08-24T09:41:19.215Z,59.90
2022-08-24T09:44:04.810Z,59.50
2022-08-24T09:46:59.227Z,59.00
2022-08-24T09:49:55.616Z,59.20
2022-08-24T09:52:44.371Z,58.60
2022-08-24T09:55:38.596Z,58.50
2022-08-24T09:58:37.199Z,59.30
2022-08-24T10:01:17.518Z,59.10
2022-08-24T10:03:59.411Z,59.00
2022-08-24T10:06:35.278Z,59.10
2022-08-24T10:09:38.741Z,58.40
2022-08-24T10:12:27.297Z,58.50
2022-08-24T10:15:04.980Z,58.60
2022-08-24T10:17:47.269Z,58.30
2022-08-24T10:20:29.426Z,58.00
2022-08-24T10:23:25.910Z,58.20
2022-08-24T10:26:11.369Z,57.70
2022-08-24T10:29:07.034Z,56.80
2022-08-24T10:32:03.901Z,56.50
2022-08-24T10:34:52.517Z,56.30
2022-08-24T10:37:42.522Z,54.20
2022-08-24T10:40:39.117Z,53.90
2022-08-24T10:43:34.565Z,54.30
2022-08-24T10:46:27.965Z,53.40
2022-08-24T10:49:13.494Z,53.20
2022-08-24T10:51:47.668Z,52.50
2022-08-24T10:54:14.952Z,53.10
2022-08-24T10:57:15.628Z,53.50
2022-08-24T11:00:22.923Z,53.40
2022-08-24T11:03:04.945Z,53.40
2022-08-24T11:05:39.616Z,53.70
2022-08-24T11:08:07.731Z,53.50
2022-08-24T11:10:38.026Z,54.00
2022-08-24T11:13:18.889Z,53.40
2022-08-24T11:16:05.797Z,52.70
2022-08-24T11:18:52.776Z,52.70
2022-08-24T11:21:52.874Z,52.20
2022-08-24T11:24:19.563Z,52.40
2022-08-24T11:26:55.651Z,50.90
2022-08-24T11:29:27.809Z,51.10
2022-08-24T11:31:54.694Z,51.90
2022-08-24T11:34:33.938Z,50.90
2022-08-24T11:37:00.696Z,49.50
2022-08-24T11:39:30.747Z,49.60
2022-08-24T11:42:06.218Z,49.20
2022-08-24T11:44:42.143Z,49.20
2022-08-24T11:47:27.576Z,49.00
2022-08-24T11:50:26.185Z,48.90
2022-08-24T11:53:30.165Z,49.50
2022-08-24T11:56:25.864Z,47.80
2022-08-24T11:59:11.073Z,46.90
2022-08-24T12:01:53.672Z,46.90
2022-08-24T12:04:51.414Z,47.00
2022-08-24T12:07:33.410Z,46.50
2022-08-24T12:10:50.949Z,45.90
2022-08-24T12:13:35.366Z,46.30
2022-08-24T12:16:19.292Z,46.30
2022-08-24T12:19:04.799Z,45.80
2022-08-24T12:21:34.891Z,46.10
2022-08-24T12:24:15.592Z,46.00
2022-08-24T12:26:53.152Z,46.20
2022-08-24T12:29:38.439Z,46.20
2022-08-24T12:32:16.298Z,45.60
2022-08-24T12:35:21.646Z,45.70
2022-08-24T12:38:19.413Z,45.00
2022-08-24T12:41:17.890Z,45.20
2022-08-24T12:44:01.409Z,44.60
2022-08-24T12:46:28.406Z,45.00
2022-08-24T12:49:08.423Z,45.00
2022-08-24T12:51:51.817Z,44.80
2022-08-24T12:54:52.437Z,44.60
2022-08-24T12:58:30.400Z,44.90
2022-08-24T13:00:51.365Z,45.50
2022-08-24T13:03:46.082Z,45.80
2022-08-24T13:06:41.208Z,45.30
2022-08-24T13:09:32.078Z,44.80
2022-08-24T13:12:19.776Z,44.10
2022-08-24T13:14:56.856Z,43.90
2022-08-24T13:17:40.540Z,43.90
2022-08-24T13:20:43.694Z,43.10
2022-08-24T13:23:16.398Z,43.40
2022-08-24T13:25:52.075Z,43.50
2022-08-24T13:28:22.106Z,43.20
2022-08-24T13:31:04.283Z,43.40
2022-08-24T13:33:39.254Z,43.20
2022-08-24T13:36:24.938Z,42.80
2022-08-24T13:39:03.469Z,42.80
2022-08-24T13:41:42.025Z,42.80
2022-08-24T13:44:39.472Z,42.40
2022-08-24T13:47:44.474Z,42.30
2022-08-24T13:50:48.791Z,42.40
2022-08-24T13:53:53.178Z,42.50
2022-08-24T13:56:37.840Z,42.40
2022-08-24T13:59:37.040Z,42.40
2022-08-24T14:02:16.031Z,42.40
2022-08-24T14:05:00.763Z,42.60
2022-08-24T14:07:33.876Z,42.80
2022-08-24T14:10:31.104Z,42.70
2022-08-24T14:12:58.481Z,42.90
2022-08-24T14:16:19.519Z,43.00
2022-08-24T14:18:59.418Z,42.90
2022-08-24T14:21:39.373Z,43.10
2022-08-24T14:24:12.077Z,43.10
2022-08-24T14:26:40.125Z,43.30
2022-08-24T14:29:34.764Z,43.40
2022-08-24T14:32:08.648Z,43.20
2022-08-24T14:34:44.970Z,43.40
2022-08-24T14:37:14.438Z,43.40
2022-08-24T14:40:15.190Z,43.80
2022-08-24T14:43:21.969Z,44.80
2022-08-24T14:45:55.198Z,44.30
2022-08-24T14:48:39.699Z,44.40
2022-08-24T14:51:27.692Z,44.50
2022-08-24T14:54:13.727Z,44.90
2022-08-24T14:57:02.084Z,45.10
2022-08-24T15:00:15.764Z,45.30
2022-08-24T15:02:51.457Z,45.30
2022-08-24T15:05:23.806Z,45.40
2022-08-24T15:07:59.320Z,45.40
2022-08-24T15:10:48.593Z,45.40
2022-08-24T15:13:39.668Z,45.50
2022-08-24T15:16:38.857Z,45.50
2022-08-24T15:19:29.357Z,45.70
2022-08-24T15:22:14.667Z,45.90
2022-08-24T15:24:47.911Z,45.80
2022-08-24T15:27:48.849Z,46.00
2022-08-24T15:30:27.140Z,46.20
2022-08-24T15:33:01.292Z,46.70
2022-08-24T15:35:31.935Z,46.80
2022-08-24T15:38:16.488Z,47.10
2022-08-24T15:40:46.305Z,47.30
2022-08-24T15:43:13.836Z,47.60
2022-08-24T15:45:48.505Z,47.70
2022-08-24T15:48:19.498Z,47.80
2022-08-24T15:50:48.675Z,48.00
2022-08-24T15:53:38.867Z,48.00
2022-08-24T15:56:38.557Z,48.10
2022-08-24T15:59:23.504Z,48.40
2022-08-24T16:02:16.274Z,48.40
2022-08-24T16:04:48.519Z,48.80
2022-08-24T16:07:24.699Z,49.00
2022-08-24T16:10:12.692Z,49.20
2022-08-24T16:12:39.966Z,49.10
2022-08-24T16:15:16.973Z,49.10
2022-08-24T16:17:51.485Z,49.30
2022-08-24T16:20:21.113Z,49.30
2022-08-24T16:22:58.465Z,49.20
2022-08-24T16:25:44.133Z,49.10
2022-08-24T16:28:22.157Z,49.20
2022-08-24T16:30:57.863Z,49.30
2022-08-24T16:33:43.027Z,49.40
2022-08-24T16:36:14.998Z,49.70
2022-08-24T16:38:47.903Z,50.00
2022-08-24T16:41:19.773Z,50.30
2022-08-24T16:43:47.830Z,50.50
2022-08-24T16:46:21.388Z,50.90
2022-08-24T16:48:48.420Z,51.20
2022-08-24T16:51:15.203Z,51.60
2022-08-24T16:53:42.818Z,51.80
2022-08-24T16:56:12.472Z,52.00
2022-08-24T16:58:41.995Z,52.20
2022-08-24T17:01:08.844Z,52.50
2022-08-24T17:03:35.645Z,52.90
2022-08-24T17:06:02.610Z,53.20
2022-08-24T17:08:29.442Z,53.30
2022-08-24T17:10:56.284Z,53.40
2022-08-24T17:16:12.363Z,53.90
2022-08-24T17:18:41.509Z,54.70
2022-08-24T17:21:08.519Z,54.20
2022-08-24T17:23:35.660Z,54.90
2022-08-24T17:26:06.890Z,54.30
2022-08-24T17:28:38.830Z,54.50
2022-08-24T17:31:06.313Z,54.60
2022-08-24T17:33:33.167Z,54.70
2022-08-24T17:36:00.489Z,54.70
2022-08-24T17:38:30.302Z,54.70
2022-08-24T17:40:57.487Z,54.90
2022-08-24T17:43:24.892Z,55.00
2022-08-24T17:45:53.298Z,55.10
2022-08-24T17:48:24.627Z,55.20
2022-08-24T17:50:52.168Z,55.20
2022-08-24T17:53:19.233Z,55.30
2022-08-24T17:55:46.401Z,55.50
2022-08-24T17:58:14.899Z,55.70
2022-08-24T18:00:42.429Z,56.00
2022-08-24T18:03:12.309Z,56.10
2022-08-24T18:05:41.466Z,56.30
2022-08-24T18:08:08.534Z,56.60
2022-08-24T18:10:35.340Z,56.80
2022-08-24T18:13:03.569Z,56.90
2022-08-24T18:15:35.975Z,57.10
2022-08-24T18:18:08.391Z,57.30
2022-08-24T18:20:38.188Z,57.40
2022-08-24T18:23:05.176Z,57.60
2022-08-24T18:25:43.782Z,57.70
2022-08-24T18:28:11.099Z,57.80
2022-08-24T18:30:40.671Z,57.90
2022-08-24T18:33:08.519Z,58.10
2022-08-24T18:35:35.878Z,58.20
2022-08-24T18:38:02.717Z,58.40
2022-08-24T18:40:33.225Z,58.50
2022-08-24T18:43:02.131Z,58.60
2022-08-24T18:45:31.700Z,58.70
2022-08-24T18:47:58.856Z,58.90
2022-08-24T18:50:28.762Z,59.00
2022-08-24T18:52:56.382Z,59.20
2022-08-24T18:55:24.075Z,59.50
2022-08-24T18:57:51.571Z,59.90
2022-08-24T19:00:18.609Z,60.90
2022-08-24T19:02:45.690Z,60.20
2022-08-24T19:05:20.677Z,60.30
2022-08-24T19:07:52.496Z,60.50
2022-08-24T19:10:22.845Z,60.70
2022-08-24T19:12:55.260Z,60.70
2022-08-24T19:15:35.784Z,61.00
2022-08-24T19:18:07.634Z,61.40
2022-08-24T19:20:35.443Z,61.40
2022-08-24T19:23:08.635Z,61.50
2022-08-24T19:25:37.124Z,61.80
2022-08-24T19:28:04.702Z,62.10
2022-08-24T19:30:31.604Z,62.20
2022-08-24T19:33:00.116Z,62.30
2022-08-24T19:35:27.275Z,62.30
2022-08-24T19:37:54.125Z,62.60
2022-08-24T19:40:21.097Z,62.60
2022-08-24T19:42:51.016Z,62.90
2022-08-24T19:45:41.115Z,63.00
2022-08-24T19:48:08.189Z,63.30
2022-08-24T19:50:36.009Z,63.60
2022-08-24T19:53:05.009Z,63.60
2022-08-24T19:55:32.814Z,63.80
2022-08-24T19:58:30.259Z,63.70
2022-08-24T20:01:13.316Z,63.90
2022-08-24T20:03:40.901Z,64.30
2022-08-24T20:06:07.763Z,64.30
2022-08-24T20:08:34.644Z,64.40
2022-08-24T20:11:01.797Z,64.40
2022-08-24T20:13:28.554Z,64.50
2022-08-24T20:15:56.414Z,64.70
2022-08-24T20:18:35.113Z,64.80
2022-08-24T20:21:02.292Z,65.10
2022-08-24T20:23:29.665Z,65.40
2022-08-24T20:26:01.259Z,65.60
2022-08-24T20:28:37.955Z,65.60
2022-08-24T20:31:05.475Z,65.70
2022-08-24T20:33:32.310Z,65.70
2022-08-24T20:35:59.582Z,65.90
2022-08-24T20:38:29.411Z,66.00
2022-08-24T20:40:59.536Z,66.20
2022-08-24T20:43:26.525Z,66.20
2022-08-24T20:45:53.921Z,66.30
2022-08-24T20:48:30.323Z,66.50
2022-08-24T20:50:57.607Z,66.80
2022-08-24T20:53:24.992Z,66.90
2022-08-24T20:55:51.789Z,67.20
2022-08-24T20:58:21.481Z,66.90
2022-08-24T21:00:49.190Z,67.00
2022-08-24T21:03:18.422Z,67.10
2022-08-24T21:05:46.762Z,67.10
2022-08-24T21:08:14.327Z,67.70
2022-08-24T21:10:42.364Z,67.30
2022-08-24T21:13:09.504Z,67.60
2022-08-24T21:15:38.209Z,67.80
2022-08-24T21:18:05.929Z,68.00
2022-08-24T21:20:32.891Z,68.20
2022-08-24T21:22:59.771Z,68.20
2022-08-24T21:25:27.358Z,68.40
2022-08-24T21:27:54.425Z,68.50
2022-08-24T21:30:22.570Z,68.70
2022-08-24T21:33:08.108Z,68.90
2022-08-24T21:35:36.266Z,68.70
2022-08-24T21:38:04.991Z,69.00
2022-08-24T21:40:31.983Z,69.00
2022-08-24T21:42:58.913Z,69.20
2022-08-24T21:45:27.310Z,69.50
2022-08-24T21:47:54.151Z,69.60
2022-08-24T21:50:25.570Z,69.70
2022-08-24T21:52:53.787Z,69.90
2022-08-24T21:55:21.639Z,70.00
2022-08-24T21:57:49.041Z,70.10
2022-08-24T22:00:18.699Z,70.30
2022-08-24T22:02:46.144Z,70.40
2022-08-24T22:05:13.064Z,70.70
2022-08-24T22:07:40.379Z,70.50
2022-08-24T22:10:08.668Z,70.70
2022-08-24T22:12:40.521Z,70.70
2022-08-24T22:15:11.587Z,70.70
2022-08-24T22:17:38.433Z,70.60
2022-08-24T22:20:06.729Z,70.80
2022-08-24T22:22:34.047Z,70.90
2022-08-24T22:25:00.890Z,71.10
2022-08-24T22:27:27.635Z,71.10
2022-08-24T22:29:57.359Z,71.30
2022-08-24T22:32:24.609Z,71.50
2022-08-24T22:34:51.911Z,71.40
2022-08-24T22:37:18.679Z,71.80
2022-08-24T22:39:46.218Z,71.90
2022-08-24T22:42:13.038Z,72.10
2022-08-24T22:44:40.119Z,72.10
2022-08-24T22:47:12.984Z,72.30
2022-08-24T22:49:45.281Z,72.50
2022-08-24T22:52:14.637Z,72.60
2022-08-24T22:54:41.544Z,72.70
2022-08-24T22:57:09.081Z,72.80
2022-08-24T22:59:38.631Z,72.90
2022-08-24T23:02:11.245Z,73.10
2022-08-24T23:04:40.337Z,73.10
2022-08-24T23:07:08.486Z,73.40
2022-08-24T23:09:44.087Z,73.50
2022-08-24T23:12:14.988Z,73.50
2022-08-24T23:14:42.668Z,73.80
2022-08-24T23:17:09.669Z,73.80
2022-08-24T23:19:54.918Z,74.10
2022-08-24T23:22:21.839Z,74.30
2022-08-24T23:24:48.574Z,74.30
2022-08-24T23:27:18.064Z,74.40
2022-08-24T23:29:46.047Z,74.50
2022-08-24T23:32:13.702Z,74.50
2022-08-24T23:34:45.194Z,74.50
2022-08-24T23:37:12.607Z,74.60
2022-08-24T23:39:39.833Z,74.70
2022-08-24T23:42:06.979Z,74.80
2022-08-24T23:44:34.335Z,74.90
2022-08-24T23:47:01.323Z,74.90
2022-08-24T23:49:29.095Z,75.10
2022-08-24T23:51:56.045Z,75.30
2022-08-24T23:54:25.444Z,75.20
2022-08-24T23:56:53.092Z,75.70
2022-08-24T23:59:29.282Z,76.10
